Time;durP1;ratioP1;P1;durP2;ratioP2;P2;SDS_P1;SDS_P2;PMS_P1;PMS_P2;Temp;Humidity;BMP_temperature;BMP_pressure;BME280_temperature;BME280_humidity;BME280_pressure;Samples;Min_cycle;Max_cycle;Signal;HPM_P1;HPM_P2
2023/07/25 00:00:08;;;;;;;;;;;;;;;;;;1271295;23;19904;-19
2023/07/25 00:00:38;;;;;;;;;;;;;;;;;;1271163;23;19909;-18
2023/07/25 00:01:08;;;;;;;;;;;;;;;;;;1271463;23;19906;-16
2023/07/25 00:01:39;;;;;;;;;;;;;;;;;;1271407;23;19909;-20
2023/07/25 00:02:09;;;;;;;;;;;;;;;;;;1271460;23;19909;-21
2023/07/25 00:02:39;;;;;;;;;;;;;;;;;;1271411;23;19916;-20
2023/07/25 00:03:09;;;;;;;;;;;;;;;;;;1271469;23;19912;-20
2023/07/25 00:03:39;;;;;;;;;;;;;;;;;;1271488;23;19915;-19
2023/07/25 00:04:10;;;;;;;;;;;;;;;;;;1264960;23;19912;-17
2023/07/25 00:04:40;;;;;;;;;;;;;;;;;;1264972;23;19909;-21
2023/07/25 00:05:10;;;;;;;;;;;;;;;;;;1264935;23;19909;-21
2023/07/25 00:05:40;;;;;;;;;;;;;;;;;;1265179;23;19909;-20
2023/07/25 00:06:11;;;;;;;;;;;;;;;;;;1271590;23;19905;-17
2023/07/25 00:06:41;;;;;;;;;;;;;;;;;;1271603;23;19908;-17
2023/07/25 00:07:11;;;;;;;;;;;;;;;;;;1271826;23;19954;-18
2023/07/25 00:07:41;;;;;;;;;;;;;;;;;;1271606;23;19908;-19
2023/07/25 00:08:11;;;;;;;;;;;;;;;;;;1271512;23;19912;-19
2023/07/25 00:08:42;;;;;;;;;;;;;;;;;;1271409;23;19916;-19
2023/07/25 00:09:12;;;;;;;;;;;;;;;;;;1271481;23;19911;-20
2023/07/25 00:09:42;;;;;;;;;;;;;;;;;;1271585;23;19909;-20
2023/07/25 00:10:12;;;;;;;;;;;;;;;;;;1271380;23;19905;-20
2023/07/25 00:10:43;;;;;;;;;;;;;;;;;;1271331;23;19932;-19
2023/07/25 00:11:13;;;;;;;;;;;;;;;;;;1271503;23;19954;-20
2023/07/25 00:11:43;;;;;;;;;;;;;;;;;;1271667;23;19913;-18
2023/07/25 00:12:13;;;;;;;;;;;;;;;;;;1271515;23;19992;-20
2023/07/25 00:12:44;;;;;;;;;;;;;;;;;;1271391;23;19908;-20
2023/07/25 00:13:14;;;;;;;;;;;;;;;;;;1271481;23;19912;-16
2023/07/25 00:13:44;;;;;;;;;;;;;;;;;;1271574;23;19918;-20
2023/07/25 00:14:14;;;;;;;;;;;;;;;;;;1271422;23;20283;-19
2023/07/25 00:14:45;;;;;;;;;;;;;;;;;;1271213;23;19916;-21
2023/07/25 00:15:15;;;;;;;;;;;;;;;;;;1271333;23;19905;-18
2023/07/25 00:15:45;;;;;;;;;;;;;;;;;;1271420;23;19908;-20
2023/07/25 00:16:15;;;;;;;;;;;;;;;;;;1264749;23;19982;-18
2023/07/25 00:16:45;;;;;;;;;;;;;;;;;;1258821;23;20012;-19
2023/07/25 00:17:16;;;;;;;;;;;;;;;;;;1258962;23;19928;-21
2023/07/25 00:17:46;;;;;;;;;;;;;;;;;;1259159;23;19914;-19
2023/07/25 00:18:16;;;;;;;;;;;;;;;;;;1265009;23;19913;-20
2023/07/25 00:18:47;;;;;;;;;;;;;;;;;;1271235;23;20701;-21
2023/07/25 00:19:17;;;;;;;;;;;;;;;;;;1271458;23;19913;-19
2023/07/25 00:19:47;;;;;;;;;;;;;;;;;;1271592;23;19973;-19
2023/07/25 00:20:17;;;;;;;;;;;;;;;;;;1271432;23;20299;-18
2023/07/25 00:20:47;;;;;;;;;;;;;;;;;;1271204;23;19931;-19
2023/07/25 00:21:18;;;;;;;;;;;;;;;;;;1271569;23;19904;-19
2023/07/25 00:21:48;;;;;;;;;;;;;;;;;;1271453;23;19991;-16
2023/07/25 00:22:18;;;;;;;;;;;;;;;;;;1271633;23;19950;-19
2023/07/25 00:22:48;;;;;;;;;;;;;;;;;;1271104;23;20015;-20
2023/07/25 00:23:19;;;;;;;;;;;;;;;;;;1271526;23;19954;-21
2023/07/25 00:23:49;;;;;;;;;;;;;;;;;;1270983;23;19905;-20
2023/07/25 00:24:19;;;;;;;;;;;;;;;;;;1271743;23;19912;-19
2023/07/25 00:24:49;;;;;;;;;;;;;;;;;;1271068;23;19905;-18
2023/07/25 00:25:20;;;;;;;;;;;;;;;;;;1271520;23;19904;-17
2023/07/25 00:25:50;;;;;;;;;;;;;;;;;;1271367;23;19905;-19
2023/07/25 00:26:20;;;;;;;;;;;;;;;;;;1271636;23;19999;-21
2023/07/25 00:26:50;;;;;;;;;;;;;;;;;;1271182;23;19911;-18
2023/07/25 00:27:20;;;;;;;;;;;;;;;;;;1271667;23;19911;-17
2023/07/25 00:27:51;;;;;;;;;;;;;;;;;;1271081;23;19905;-19
2023/07/25 00:28:22;;;;;;;;;;;;;;;;;;1271264;23;19958;-21
2023/07/25 00:28:52;;;;;;;;;;;;;;;;;;1271127;23;19905;-20
2023/07/25 00:29:23;;;;;;;;;;;;;;;;;;1271661;23;19905;-18
2023/07/25 00:29:53;;;;;;;;;;;;;;;;;;1271378;23;19904;-19
2023/07/25 00:30:23;;;;;;;;;;;;;;;;;;1271497;23;19905;-17
2023/07/25 00:30:53;;;;;;;;;;;;;;;;;;1271119;23;19904;-16
2023/07/25 00:31:24;;;;;;;;;;;;;;;;;;1271579;23;20325;-20
2023/07/25 00:31:54;;;;;;;;;;;;;;;;;;1271438;23;19905;-17
2023/07/25 00:32:24;;;;;;;;;;;;;;;;;;1271656;23;20345;-18
2023/07/25 00:32:54;;;;;;;;;;;;;;;;;;1271202;23;20609;-19
2023/07/25 00:33:24;;;;;;;;;;;;;;;;;;1271642;23;20336;-18
2023/07/25 00:33:55;;;;;;;;;;;;;;;;;;1271313;23;20310;-19
2023/07/25 00:34:25;;;;;;;;;;;;;;;;;;1271475;23;20323;-18
2023/07/25 00:34:55;;;;;;;;;;;;;;;;;;1271229;23;19904;-20
2023/07/25 00:35:25;;;;;;;;;;;;;;;;;;1271599;23;19987;-20
2023/07/25 00:35:56;;;;;;;;;;;;;;;;;;1271282;23;20424;-19
2023/07/25 00:36:26;;;;;;;;;;;;;;;;;;1271622;23;20351;-20
2023/07/25 00:36:56;;;;;;;;;;;;;;;;;;1271127;23;20358;-19
2023/07/25 00:37:26;;;;;;;;;;;;;;;;;;1271606;23;19935;-20
2023/07/25 00:37:56;;;;;;;;;;;;;;;;;;1271376;23;19913;-19
2023/07/25 00:38:27;;;;;;;;;;;;;;;;;;1271482;23;19913;-19
2023/07/25 00:38:57;;;;;;;;;;;;;;;;;;1271165;23;19987;-19
2023/07/25 00:39:27;;;;;;;;;;;;;;;;;;1271673;23;20408;-17
2023/07/25 00:39:57;;;;;;;;;;;;;;;;;;1271460;23;20313;-20
2023/07/25 00:40:28;;;;;;;;;;;;;;;;;;1271578;23;20306;-18
2023/07/25 00:40:58;;;;;;;;;;;;;;;;;;1271140;23;19932;-21
2023/07/25 00:41:28;;;;;;;;;;;;;;;;;;1271655;23;20321;-20
2023/07/25 00:41:58;;;;;;;;;;;;;;;;;;1271352;23;20267;-19
2023/07/25 00:42:28;;;;;;;;;;;;;;;;;;1271593;23;20318;-20
2023/07/25 00:43:00;;;;;;;;;;;;;;;;;;1271347;23;20229;-21
2023/07/25 00:43:30;;;;;;;;;;;;;;;;;;1271619;23;19905;-20
2023/07/25 00:44:00;;;;;;;;;;;;;;;;;;1271366;23;20330;-19
2023/07/25 00:44:30;;;;;;;;;;;;;;;;;;1271600;23;20343;-17
2023/07/25 00:45:01;;;;;;;;;;;;;;;;;;1271220;23;20325;-17
2023/07/25 00:45:31;;;;;;;;;;;;;;;;;;1271436;23;20333;-19
2023/07/25 00:46:01;;;;;;;;;;;;;;;;;;1271336;23;19979;-21
2023/07/25 00:46:31;;;;;;;;;;;;;;;;;;1271550;23;19911;-18
2023/07/25 00:47:01;;;;;;;;;;;;;;;;;;1271219;23;19905;-20
2023/07/25 00:47:32;;;;;;;;;;;;;;;;;;1271699;23;19954;-17
2023/07/25 00:48:02;;;;;;;;;;;;;;;;;;1271423;23;20006;-19
2023/07/25 00:48:32;;;;;;;;;;;;;;;;;;1271455;23;19905;-16
2023/07/25 00:49:02;;;;;;;;;;;;;;;;;;1271220;23;19918;-19
2023/07/25 00:49:32;;;;;;;;;;;;;;;;;;1271652;23;19904;-16
2023/07/25 00:50:03;;;;;;;;;;;;;;;;;;1271300;23;19904;-17
2023/07/25 00:50:33;;;;;;;;;;;;;;;;;;1271518;23;19916;-20
2023/07/25 00:51:03;;;;;;;;;;;;;;;;;;1271105;23;19905;-19
2023/07/25 00:51:34;;;;;;;;;;;;;;;;;;1271576;23;19905;-21
2023/07/25 00:52:04;;;;;;;;;;;;;;;;;;1271359;23;20317;-17
2023/07/25 00:52:34;;;;;;;;;;;;;;;;;;1271489;23;19905;-19
2023/07/25 00:53:04;;;;;;;;;;;;;;;;;;1271399;23;20325;-20
2023/07/25 00:53:34;;;;;;;;;;;;;;;;;;1271319;23;19904;-20
2023/07/25 00:54:05;;;;;;;;;;;;;;;;;;1271324;23;19983;-18
2023/07/25 00:54:35;;;;;;;;;;;;;;;;;;1271394;23;19904;-18
2023/07/25 00:55:06;;;;;;;;;;;;;;;;;;1271455;23;20292;-20
2023/07/25 00:55:36;;;;;;;;;;;;;;;;;;1271570;23;19913;-17
2023/07/25 00:56:07;;;;;;;;;;;;;;;;;;1271437;23;19919;-18
2023/07/25 00:56:37;;;;;;;;;;;;;;;;;;1271336;23;20283;-19
2023/07/25 00:57:07;;;;;;;;;;;;;;;;;;1271495;23;19988;-17
2023/07/25 00:57:37;;;;;;;;;;;;;;;;;;1271555;23;19915;-17
2023/07/25 00:58:07;;;;;;;;;;;;;;;;;;1271439;23;19939;-20
2023/07/25 00:58:38;;;;;;;;;;;;;;;;;;1271328;23;19908;-16
2023/07/25 00:59:08;;;;;;;;;;;;;;;;;;1271392;23;19927;-19
2023/07/25 00:59:38;;;;;;;;;;;;;;;;;;1271483;23;19909;-20
2023/07/25 01:00:09;;;;;;;;;;;;;;;;;;1271162;23;20185;-16
2023/07/25 01:00:39;;;;;;;;;;;;;;;;;;1271153;23;19912;-19
2023/07/25 01:01:09;;;;;;;;;;;;;;;;;;1271422;23;19905;-17
2023/07/25 01:01:40;;;;;;;;;;;;;;;;;;1271507;23;19915;-18
2023/07/25 01:02:10;;;;;;;;;;;;;;;;;;1271407;23;19912;-20
2023/07/25 01:02:40;;;;;;;;;;;;;;;;;;1271312;23;19954;-20
2023/07/25 01:03:10;;;;;;;;;;;;;;;;;;1271396;23;20234;-19
2023/07/25 01:03:41;;;;;;;;;;;;;;;;;;1271459;23;19908;-18
2023/07/25 01:04:11;;;;;;;;;;;;;;;;;;1271420;23;19950;-19
2023/07/25 01:04:41;;;;;;;;;;;;;;;;;;1271389;23;20337;-17
2023/07/25 01:05:11;;;;;;;;;;;;;;;;;;1271346;23;20431;-19
2023/07/25 01:05:42;;;;;;;;;;;;;;;;;;1271596;23;20237;-19
2023/07/25 01:06:12;;;;;;;;;;;;;;;;;;1271259;23;20330;-18
2023/07/25 01:06:42;;;;;;;;;;;;;;;;;;1271302;23;20307;-19
2023/07/25 01:07:15;;;;;;;;;;;;;;;;;;1271368;23;20291;-17
2023/07/25 01:07:45;;;;;;;;;;;;;;;;;;1271536;23;19909;-19
2023/07/25 01:08:15;;;;;;;;;;;;;;;;;;1271430;23;20245;-19
2023/07/25 01:08:46;;;;;;;;;;;;;;;;;;1271344;23;20379;-20
2023/07/25 01:09:16;;;;;;;;;;;;;;;;;;1271401;23;19905;-21
2023/07/25 01:09:46;;;;;;;;;;;;;;;;;;1271511;23;19946;-16
2023/07/25 01:10:16;;;;;;;;;;;;;;;;;;1271247;23;19943;-19
2023/07/25 01:10:47;;;;;;;;;;;;;;;;;;1271315;23;19912;-21
2023/07/25 01:11:17;;;;;;;;;;;;;;;;;;1271393;23;19913;-19
2023/07/25 01:11:47;;;;;;;;;;;;;;;;;;1271503;23;20412;-21
2023/07/25 01:12:17;;;;;;;;;;;;;;;;;;1271408;23;19906;-21
2023/07/25 01:12:47;;;;;;;;;;;;;;;;;;1271262;23;20226;-22
2023/07/25 01:13:18;;;;;;;;;;;;;;;;;;1271540;23;19927;-17
2023/07/25 01:13:48;;;;;;;;;;;;;;;;;;1270809;23;19904;-20
2023/07/25 01:14:18;;;;;;;;;;;;;;;;;;1271035;23;19904;-21
2023/07/25 01:14:49;;;;;;;;;;;;;;;;;;1270686;23;19913;-17
2023/07/25 01:15:19;;;;;;;;;;;;;;;;;;1271482;23;19905;-18
2023/07/25 01:15:49;;;;;;;;;;;;;;;;;;1271257;23;19905;-20
2023/07/25 01:16:19;;;;;;;;;;;;;;;;;;1271407;23;19927;-17
2023/07/25 01:16:49;;;;;;;;;;;;;;;;;;1271083;23;19954;-18
2023/07/25 01:17:20;;;;;;;;;;;;;;;;;;1271609;23;19936;-20
2023/07/25 01:17:50;;;;;;;;;;;;;;;;;;1271382;23;19904;-21
2023/07/25 01:18:20;;;;;;;;;;;;;;;;;;1271484;23;19904;-19
2023/07/25 01:18:50;;;;;;;;;;;;;;;;;;1271107;23;19904;-18
2023/07/25 01:19:20;;;;;;;;;;;;;;;;;;1271376;23;19905;-20
2023/07/25 01:19:51;;;;;;;;;;;;;;;;;;1271357;23;19905;-20
2023/07/25 01:20:21;;;;;;;;;;;;;;;;;;1271549;23;19904;-16
2023/07/25 01:20:51;;;;;;;;;;;;;;;;;;1270725;23;19911;-19
2023/07/25 01:21:21;;;;;;;;;;;;;;;;;;1271586;23;19905;-18
2023/07/25 01:21:52;;;;;;;;;;;;;;;;;;1271316;23;19927;-20
2023/07/25 01:22:22;;;;;;;;;;;;;;;;;;1271556;23;19908;-20
2023/07/25 01:22:52;;;;;;;;;;;;;;;;;;1271126;23;19936;-18
2023/07/25 01:23:22;;;;;;;;;;;;;;;;;;1271574;23;19905;-17
2023/07/25 01:23:52;;;;;;;;;;;;;;;;;;1270852;23;20387;-19
2023/07/25 01:24:23;;;;;;;;;;;;;;;;;;1271531;23;19905;-16
2023/07/25 01:24:53;;;;;;;;;;;;;;;;;;1271159;23;19912;-19
2023/07/25 01:25:23;;;;;;;;;;;;;;;;;;1271494;23;20253;-17
2023/07/25 01:25:54;;;;;;;;;;;;;;;;;;1271290;23;19905;-20
2023/07/25 01:26:24;;;;;;;;;;;;;;;;;;1271498;23;19905;-14
2023/07/25 01:26:54;;;;;;;;;;;;;;;;;;1271132;23;19904;-18
2023/07/25 01:27:24;;;;;;;;;;;;;;;;;;1271515;23;19905;-19
2023/07/25 01:27:55;;;;;;;;;;;;;;;;;;1271321;23;20323;-19
2023/07/25 01:28:25;;;;;;;;;;;;;;;;;;1271468;23;19946;-19
2023/07/25 01:28:55;;;;;;;;;;;;;;;;;;1271078;23;19905;-20
2023/07/25 01:29:25;;;;;;;;;;;;;;;;;;1271481;23;19966;-21
2023/07/25 01:29:55;;;;;;;;;;;;;;;;;;1271299;23;19927;-21
2023/07/25 01:30:26;;;;;;;;;;;;;;;;;;1271477;23;19904;-20
2023/07/25 01:30:56;;;;;;;;;;;;;;;;;;1271055;23;19904;-18
2023/07/25 01:31:26;;;;;;;;;;;;;;;;;;1271457;23;20222;-19
2023/07/25 01:31:57;;;;;;;;;;;;;;;;;;1271329;23;19917;-18
2023/07/25 01:32:27;;;;;;;;;;;;;;;;;;1271517;23;19905;-19
2023/07/25 01:32:57;;;;;;;;;;;;;;;;;;1271180;23;19909;-19
2023/07/25 01:33:27;;;;;;;;;;;;;;;;;;1271336;23;19909;-19
2023/07/25 01:33:58;;;;;;;;;;;;;;;;;;1271083;23;19905;-19
2023/07/25 01:34:28;;;;;;;;;;;;;;;;;;1270495;23;19928;-19
2023/07/25 01:34:58;;;;;;;;;;;;;;;;;;1271038;23;20017;-18
2023/07/25 01:35:28;;;;;;;;;;;;;;;;;;1271408;23;20268;-19
2023/07/25 01:35:58;;;;;;;;;;;;;;;;;;1271090;23;19903;-20
2023/07/25 01:36:29;;;;;;;;;;;;;;;;;;1271461;23;19936;-19
2023/07/25 01:36:59;;;;;;;;;;;;;;;;;;1271008;23;19905;-16
2023/07/25 01:37:29;;;;;;;;;;;;;;;;;;1271567;23;19908;-19
2023/07/25 01:37:59;;;;;;;;;;;;;;;;;;1271224;23;19905;-20
2023/07/25 01:38:30;;;;;;;;;;;;;;;;;;1271460;23;19911;-20
2023/07/25 01:39:00;;;;;;;;;;;;;;;;;;1271114;23;19904;-16
2023/07/25 01:39:30;;;;;;;;;;;;;;;;;;1271463;23;19950;-19
2023/07/25 01:40:00;;;;;;;;;;;;;;;;;;1271478;23;19905;-19
2023/07/25 01:40:30;;;;;;;;;;;;;;;;;;1271650;23;20227;-20
2023/07/25 01:41:01;;;;;;;;;;;;;;;;;;1271344;23;19991;-20
2023/07/25 01:41:31;;;;;;;;;;;;;;;;;;1271854;23;19905;-19
2023/07/25 01:42:01;;;;;;;;;;;;;;;;;;1271471;23;19905;-21
2023/07/25 01:42:31;;;;;;;;;;;;;;;;;;1271720;23;19962;-17
2023/07/25 01:43:02;;;;;;;;;;;;;;;;;;1271268;23;19954;-21
2023/07/25 01:43:32;;;;;;;;;;;;;;;;;;1271839;23;20453;-19
2023/07/25 01:44:02;;;;;;;;;;;;;;;;;;1271409;23;20252;-20
2023/07/25 01:44:32;;;;;;;;;;;;;;;;;;1271561;23;19904;-20
2023/07/25 01:45:02;;;;;;;;;;;;;;;;;;1271369;23;19904;-18
2023/07/25 01:45:33;;;;;;;;;;;;;;;;;;1271685;23;19909;-18
2023/07/25 01:46:03;;;;;;;;;;;;;;;;;;1271469;23;19905;-18
2023/07/25 01:46:33;;;;;;;;;;;;;;;;;;1271733;23;19986;-20
2023/07/25 01:47:03;;;;;;;;;;;;;;;;;;1271392;23;19905;-19
2023/07/25 01:47:34;;;;;;;;;;;;;;;;;;1271800;23;19911;-20
2023/07/25 01:48:04;;;;;;;;;;;;;;;;;;1271434;23;19905;-17
2023/07/25 01:48:34;;;;;;;;;;;;;;;;;;1271754;23;19940;-21
2023/07/25 01:49:04;;;;;;;;;;;;;;;;;;1271388;23;20052;-17
2023/07/25 01:49:34;;;;;;;;;;;;;;;;;;1271839;23;19905;-20
2023/07/25 01:50:05;;;;;;;;;;;;;;;;;;1271557;23;19904;-15
2023/07/25 01:50:35;;;;;;;;;;;;;;;;;;1271605;23;19915;-19
2023/07/25 01:51:05;;;;;;;;;;;;;;;;;;1271308;23;19905;-20
2023/07/25 01:51:35;;;;;;;;;;;;;;;;;;1271081;23;19904;-20
2023/07/25 01:52:05;;;;;;;;;;;;;;;;;;1270740;23;20034;-20
2023/07/25 01:52:36;;;;;;;;;;;;;;;;;;1271155;23;20333;-18
2023/07/25 01:53:06;;;;;;;;;;;;;;;;;;1271113;23;19905;-17
2023/07/25 01:53:36;;;;;;;;;;;;;;;;;;1271316;23;19925;-20
2023/07/25 01:54:06;;;;;;;;;;;;;;;;;;1271172;23;19920;-19
2023/07/25 01:54:37;;;;;;;;;;;;;;;;;;1270893;23;19920;-20
2023/07/25 01:55:07;;;;;;;;;;;;;;;;;;1271172;23;19920;-18
2023/07/25 01:55:37;;;;;;;;;;;;;;;;;;1271552;23;19913;-19
2023/07/25 01:56:07;;;;;;;;;;;;;;;;;;1271589;23;20345;-17
2023/07/25 01:56:38;;;;;;;;;;;;;;;;;;1271065;23;20325;-19
2023/07/25 01:57:08;;;;;;;;;;;;;;;;;;1271509;23;19905;-17
2023/07/25 01:57:38;;;;;;;;;;;;;;;;;;1271514;23;19909;-18
2023/07/25 01:58:08;;;;;;;;;;;;;;;;;;1271462;23;20495;-19
2023/07/25 01:58:38;;;;;;;;;;;;;;;;;;1271537;23;19908;-20
2023/07/25 01:59:09;;;;;;;;;;;;;;;;;;1271583;23;19911;-19
2023/07/25 01:59:39;;;;;;;;;;;;;;;;;;1271493;23;20249;-21
2023/07/25 02:00:09;;;;;;;;;;;;;;;;;;1271494;23;20226;-18
2023/07/25 02:00:39;;;;;;;;;;;;;;;;;;1271412;23;20245;-19
2023/07/25 02:01:10;;;;;;;;;;;;;;;;;;1271517;23;19905;-19
2023/07/25 02:01:40;;;;;;;;;;;;;;;;;;1271709;23;20279;-19
2023/07/25 02:02:10;;;;;;;;;;;;;;;;;;1270970;23;20022;-20
2023/07/25 02:02:40;;;;;;;;;;;;;;;;;;1271411;23;19919;-20
2023/07/25 02:03:13;;;;;;;;;;;;;;;;;;1270591;23;19905;-21
2023/07/25 02:03:43;;;;;;;;;;;;;;;;;;1271406;23;19908;-19
2023/07/25 02:04:13;;;;;;;;;;;;;;;;;;1271457;23;19991;-21
2023/07/25 02:04:44;;;;;;;;;;;;;;;;;;1271157;23;19908;-18
2023/07/25 02:05:14;;;;;;;;;;;;;;;;;;1271193;23;19905;-19
2023/07/25 02:05:44;;;;;;;;;;;;;;;;;;1271650;23;19908;-17
2023/07/25 02:06:14;;;;;;;;;;;;;;;;;;1271151;23;19905;-21
2023/07/25 02:06:44;;;;;;;;;;;;;;;;;;1271483;23;19954;-19
2023/07/25 02:07:15;;;;;;;;;;;;;;;;;;1271599;23;19905;-19
2023/07/25 02:07:45;;;;;;;;;;;;;;;;;;1271065;23;19909;-21
2023/07/25 02:08:16;;;;;;;;;;;;;;;;;;1271519;23;19939;-20
2023/07/25 02:08:46;;;;;;;;;;;;;;;;;;1271567;23;19913;-17
2023/07/25 02:09:17;;;;;;;;;;;;;;;;;;1271440;23;19981;-19
2023/07/25 02:09:47;;;;;;;;;;;;;;;;;;1271504;23;19905;-21
2023/07/25 02:10:17;;;;;;;;;;;;;;;;;;1271242;23;19905;-21
2023/07/25 02:10:47;;;;;;;;;;;;;;;;;;1271535;23;19936;-21
2023/07/25 02:11:18;;;;;;;;;;;;;;;;;;1271659;23;19911;-21
2023/07/25 02:11:48;;;;;;;;;;;;;;;;;;1271584;23;19928;-21
2023/07/25 02:12:18;;;;;;;;;;;;;;;;;;1271725;23;19912;-21
2023/07/25 02:12:48;;;;;;;;;;;;;;;;;;1271349;23;19936;-20
2023/07/25 02:13:18;;;;;;;;;;;;;;;;;;1271108;23;19904;-20
2023/07/25 02:13:49;;;;;;;;;;;;;;;;;;1270003;23;19905;-18
2023/07/25 02:14:19;;;;;;;;;;;;;;;;;;1269787;23;19905;-17
2023/07/25 02:14:49;;;;;;;;;;;;;;;;;;1270908;23;19913;-17
2023/07/25 02:15:19;;;;;;;;;;;;;;;;;;1271261;23;20371;-18
2023/07/25 02:15:50;;;;;;;;;;;;;;;;;;1271205;23;20317;-20
2023/07/25 02:16:20;;;;;;;;;;;;;;;;;;1271686;23;20447;-19
2023/07/25 02:16:50;;;;;;;;;;;;;;;;;;1271198;23;20317;-19
2023/07/25 02:17:20;;;;;;;;;;;;;;;;;;1271276;23;19999;-16
2023/07/25 02:17:51;;;;;;;;;;;;;;;;;;1271445;23;19984;-19
2023/07/25 02:18:21;;;;;;;;;;;;;;;;;;1271764;23;19932;-20
2023/07/25 02:18:52;;;;;;;;;;;;;;;;;;1271091;23;19905;-18
2023/07/25 02:19:22;;;;;;;;;;;;;;;;;;1271705;23;19987;-17
2023/07/25 02:19:52;;;;;;;;;;;;;;;;;;1271517;23;20347;-19
2023/07/25 02:20:25;;;;;;;;;;;;;;;;;;1271746;23;20381;-19
2023/07/25 02:20:56;;;;;;;;;;;;;;;;;;1271068;23;20245;-17
2023/07/25 02:21:26;;;;;;;;;;;;;;;;;;1271574;23;19912;-21
2023/07/25 02:21:56;;;;;;;;;;;;;;;;;;1270604;23;19948;-18
2023/07/25 02:22:26;;;;;;;;;;;;;;;;;;1271670;23;19999;-18
2023/07/25 02:22:57;;;;;;;;;;;;;;;;;;1271109;23;19920;-16
2023/07/25 02:23:27;;;;;;;;;;;;;;;;;;1271550;23;19913;-18
2023/07/25 02:23:57;;;;;;;;;;;;;;;;;;1271067;23;19911;-21
2023/07/25 02:24:27;;;;;;;;;;;;;;;;;;1271839;23;19927;-16
2023/07/25 02:24:58;;;;;;;;;;;;;;;;;;1271293;23;19911;-21
2023/07/25 02:25:28;;;;;;;;;;;;;;;;;;1271444;23;20045;-19
2023/07/25 02:25:58;;;;;;;;;;;;;;;;;;1271161;23;19901;-20
2023/07/25 02:26:28;;;;;;;;;;;;;;;;;;1271546;23;19911;-17
2023/07/25 02:26:59;;;;;;;;;;;;;;;;;;1271188;23;19936;-20
2023/07/25 02:27:29;;;;;;;;;;;;;;;;;;1271747;23;20349;-19
2023/07/25 02:27:59;;;;;;;;;;;;;;;;;;1271396;23;20318;-19
2023/07/25 02:28:29;;;;;;;;;;;;;;;;;;1271627;23;20349;-22
2023/07/25 02:29:00;;;;;;;;;;;;;;;;;;1271211;23;19950;-20
2023/07/25 02:29:30;;;;;;;;;;;;;;;;;;1271780;23;19908;-20
2023/07/25 02:30:00;;;;;;;;;;;;;;;;;;1271406;23;19911;-18
2023/07/25 02:30:30;;;;;;;;;;;;;;;;;;1271570;23;19915;-18
2023/07/25 02:31:00;;;;;;;;;;;;;;;;;;1271207;23;19901;-19
2023/07/25 02:31:31;;;;;;;;;;;;;;;;;;1271683;23;19904;-17
2023/07/25 02:32:01;;;;;;;;;;;;;;;;;;1271147;23;19904;-20
2023/07/25 02:32:31;;;;;;;;;;;;;;;;;;1271647;23;19966;-21
2023/07/25 02:33:02;;;;;;;;;;;;;;;;;;1271285;23;20344;-19
2023/07/25 02:33:32;;;;;;;;;;;;;;;;;;1271781;23;20318;-16
2023/07/25 02:34:02;;;;;;;;;;;;;;;;;;1271161;23;20249;-18
2023/07/25 02:34:33;;;;;;;;;;;;;;;;;;1271559;23;19904;-19
2023/07/25 02:35:03;;;;;;;;;;;;;;;;;;1271380;23;19951;-20
2023/07/25 02:35:33;;;;;;;;;;;;;;;;;;1271559;23;19909;-19
2023/07/25 02:36:03;;;;;;;;;;;;;;;;;;1271258;23;19923;-18
2023/07/25 02:36:34;;;;;;;;;;;;;;;;;;1271543;23;19936;-20
2023/07/25 02:37:04;;;;;;;;;;;;;;;;;;1271185;23;19991;-19
2023/07/25 02:37:34;;;;;;;;;;;;;;;;;;1271417;23;19905;-19
2023/07/25 02:38:04;;;;;;;;;;;;;;;;;;1271437;23;19904;-20
2023/07/25 02:38:34;;;;;;;;;;;;;;;;;;1271420;23;19912;-21
2023/07/25 02:39:05;;;;;;;;;;;;;;;;;;1271214;23;20370;-20
2023/07/25 02:39:35;;;;;;;;;;;;;;;;;;1271547;23;19911;-21
2023/07/25 02:40:05;;;;;;;;;;;;;;;;;;1271360;23;19905;-20
2023/07/25 02:40:35;;;;;;;;;;;;;;;;;;1271436;23;19915;-19
2023/07/25 02:41:06;;;;;;;;;;;;;;;;;;1271496;23;19905;-19
2023/07/25 02:41:36;;;;;;;;;;;;;;;;;;1271331;23;19991;-19
2023/07/25 02:42:06;;;;;;;;;;;;;;;;;;1271395;23;20384;-20
2023/07/25 02:42:36;;;;;;;;;;;;;;;;;;1271556;23;19952;-17
2023/07/25 02:43:07;;;;;;;;;;;;;;;;;;1271398;23;19912;-18
2023/07/25 02:43:37;;;;;;;;;;;;;;;;;;1271490;23;19913;-19
2023/07/25 02:44:07;;;;;;;;;;;;;;;;;;1271314;23;19922;-21
2023/07/25 02:44:38;;;;;;;;;;;;;;;;;;1271301;23;19954;-19
2023/07/25 02:45:08;;;;;;;;;;;;;;;;;;1271455;23;19915;-22
2023/07/25 02:45:38;;;;;;;;;;;;;;;;;;1271349;23;19915;-22
2023/07/25 02:46:08;;;;;;;;;;;;;;;;;;1271520;23;20309;-20
2023/07/25 02:46:39;;;;;;;;;;;;;;;;;;1271449;23;19916;-21
2023/07/25 02:47:09;;;;;;;;;;;;;;;;;;1271476;23;19904;-19
2023/07/25 02:47:39;;;;;;;;;;;;;;;;;;1271686;23;19958;-19
2023/07/25 02:48:09;;;;;;;;;;;;;;;;;;1271577;23;20049;-22
2023/07/25 02:48:40;;;;;;;;;;;;;;;;;;1271201;23;19908;-17
2023/07/25 02:49:10;;;;;;;;;;;;;;;;;;1271502;23;20237;-22
2023/07/25 02:49:40;;;;;;;;;;;;;;;;;;1271714;23;19999;-22
2023/07/25 02:50:10;;;;;;;;;;;;;;;;;;1271345;23;19911;-22
2023/07/25 02:50:40;;;;;;;;;;;;;;;;;;1271355;23;19937;-20
2023/07/25 02:51:11;;;;;;;;;;;;;;;;;;1270928;23;19950;-22
2023/07/25 02:51:41;;;;;;;;;;;;;;;;;;1271331;23;19909;-19
2023/07/25 02:52:11;;;;;;;;;;;;;;;;;;1271303;23;19954;-22
2023/07/25 02:52:42;;;;;;;;;;;;;;;;;;1271425;23;19909;-21
2023/07/25 02:53:12;;;;;;;;;;;;;;;;;;1271394;23;19905;-20
2023/07/25 02:53:42;;;;;;;;;;;;;;;;;;1271108;23;20348;-20
2023/07/25 02:54:12;;;;;;;;;;;;;;;;;;1271490;23;19984;-21
2023/07/25 02:54:43;;;;;;;;;;;;;;;;;;1271319;23;19916;-19
2023/07/25 02:55:13;;;;;;;;;;;;;;;;;;1271412;23;19904;-23
2023/07/25 02:55:43;;;;;;;;;;;;;;;;;;1271495;23;19909;-20
2023/07/25 02:56:13;;;;;;;;;;;;;;;;;;1271499;23;19983;-20
2023/07/25 02:56:44;;;;;;;;;;;;;;;;;;1271395;23;19954;-20
2023/07/25 02:57:14;;;;;;;;;;;;;;;;;;1271416;23;19950;-22
2023/07/25 02:57:44;;;;;;;;;;;;;;;;;;1271609;23;19909;-22
2023/07/25 02:58:14;;;;;;;;;;;;;;;;;;1271346;23;19908;-20
2023/07/25 02:58:44;;;;;;;;;;;;;;;;;;1271422;23;19909;-20
2023/07/25 02:59:15;;;;;;;;;;;;;;;;;;1271471;23;20321;-21
2023/07/25 02:59:45;;;;;;;;;;;;;;;;;;1271620;23;20356;-19
2023/07/25 03:00:15;;;;;;;;;;;;;;;;;;1270734;23;19904;-19
2023/07/25 03:00:47;;;;;;;;;;;;;;;;;;1271436;23;19912;-21
2023/07/25 03:01:17;;;;;;;;;;;;;;;;;;1271226;23;19905;-20
2023/07/25 03:01:47;;;;;;;;;;;;;;;;;;1271562;23;19905;-21
2023/07/25 03:02:17;;;;;;;;;;;;;;;;;;1271448;23;19905;-22
2023/07/25 03:02:48;;;;;;;;;;;;;;;;;;1271335;23;19905;-22
2023/07/25 03:03:18;;;;;;;;;;;;;;;;;;1271274;23;19905;-20
2023/07/25 03:03:48;;;;;;;;;;;;;;;;;;1271096;23;19904;-19
2023/07/25 03:04:18;;;;;;;;;;;;;;;;;;1271648;23;19904;-20
2023/07/25 03:04:49;;;;;;;;;;;;;;;;;;1270720;23;19912;-20
2023/07/25 03:05:19;;;;;;;;;;;;;;;;;;1271335;23;19904;-19
2023/07/25 03:05:49;;;;;;;;;;;;;;;;;;1271298;23;19950;-19
2023/07/25 03:06:19;;;;;;;;;;;;;;;;;;1271632;23;19905;-19
2023/07/25 03:06:50;;;;;;;;;;;;;;;;;;1271223;23;20321;-17
2023/07/25 03:07:20;;;;;;;;;;;;;;;;;;1271630;23;20233;-20
2023/07/25 03:07:50;;;;;;;;;;;;;;;;;;1271247;23;19927;-20
2023/07/25 03:08:20;;;;;;;;;;;;;;;;;;1271248;23;19905;-20
2023/07/25 03:08:50;;;;;;;;;;;;;;;;;;1271181;23;19928;-18
2023/07/25 03:09:21;;;;;;;;;;;;;;;;;;1265096;23;19905;-20
2023/07/25 03:09:51;;;;;;;;;;;;;;;;;;1264817;23;19912;-20
2023/07/25 03:10:22;;;;;;;;;;;;;;;;;;1265198;23;19905;-20
2023/07/25 03:10:52;;;;;;;;;;;;;;;;;;1264011;23;19937;-20
2023/07/25 03:11:23;;;;;;;;;;;;;;;;;;1271687;23;20320;-19
2023/07/25 03:11:53;;;;;;;;;;;;;;;;;;1271293;23;19936;-19
2023/07/25 03:12:24;;;;;;;;;;;;;;;;;;1271302;23;19912;-19
2023/07/25 03:12:54;;;;;;;;;;;;;;;;;;1264502;23;19905;-18
2023/07/25 03:13:25;;;;;;;;;;;;;;;;;;1265141;23;20414;-18
2023/07/25 03:13:55;;;;;;;;;;;;;;;;;;1264840;23;19925;-20
2023/07/25 03:14:25;;;;;;;;;;;;;;;;;;1264782;23;19905;-20
2023/07/25 03:14:55;;;;;;;;;;;;;;;;;;1270874;23;19910;-21
2023/07/25 03:15:26;;;;;;;;;;;;;;;;;;1271656;23;19905;-17
2023/07/25 03:15:56;;;;;;;;;;;;;;;;;;1271436;23;19904;-21
2023/07/25 03:16:26;;;;;;;;;;;;;;;;;;1271535;23;19954;-21
2023/07/25 03:16:56;;;;;;;;;;;;;;;;;;1271255;23;20245;-20
2023/07/25 03:17:27;;;;;;;;;;;;;;;;;;1271635;23;20326;-20
2023/07/25 03:17:57;;;;;;;;;;;;;;;;;;1271460;23;20329;-19
2023/07/25 03:18:27;;;;;;;;;;;;;;;;;;1271587;23;19911;-20
2023/07/25 03:18:57;;;;;;;;;;;;;;;;;;1271140;23;19911;-20
2023/07/25 03:19:28;;;;;;;;;;;;;;;;;;1271656;23;19927;-20
2023/07/25 03:19:58;;;;;;;;;;;;;;;;;;1271455;23;19913;-20
2023/07/25 03:20:28;;;;;;;;;;;;;;;;;;1271661;23;19915;-21
2023/07/25 03:20:58;;;;;;;;;;;;;;;;;;1271001;23;19901;-19
2023/07/25 03:21:29;;;;;;;;;;;;;;;;;;1271616;23;19909;-20
2023/07/25 03:21:59;;;;;;;;;;;;;;;;;;1271402;23;20317;-19
2023/07/25 03:22:29;;;;;;;;;;;;;;;;;;1271599;23;20252;-17
2023/07/25 03:22:59;;;;;;;;;;;;;;;;;;1271317;23;19912;-18
2023/07/25 03:23:30;;;;;;;;;;;;;;;;;;1271601;23;19905;-19
2023/07/25 03:24:00;;;;;;;;;;;;;;;;;;1270999;23;19912;-19
2023/07/25 03:24:30;;;;;;;;;;;;;;;;;;1271694;23;19908;-20
2023/07/25 03:25:01;;;;;;;;;;;;;;;;;;1270628;23;19904;-20
2023/07/25 03:25:31;;;;;;;;;;;;;;;;;;1270976;23;19909;-22
2023/07/25 03:26:01;;;;;;;;;;;;;;;;;;1270975;23;20341;-18
2023/07/25 03:26:31;;;;;;;;;;;;;;;;;;1271216;23;19911;-19